Island Lookout — WDF6311 — position and weather

sailwx.info

Track history (hours):
 
Tides and Currents Weather Stations Pressure Air Temp Water Temp Dewpoint Dewpoint Depression Visibility Wind Speed Wind Dir Waves Ship Positions

Island Lookout

More information available from US FCC via Universal Licensing System and Coast Guard Vessel Documentation Center.

Last reported at 2014-Sep-18 23:33 UTC. Time now 2014-Sep-18 23:45 UTC.
Position N 39°17' W 076°36'.

Length 22 m; draft 2.9 m.

Type: Towing. MMSI: 367472930.

Date/timePositionNaut miles runAvg speedWind from/ knotsBaromVisibWave heightAir tempDewpointWater temp
2014-Sep-18 23:33N 39°17' W 076°36'0 0.0
2014-Sep-18 22:33N 39°17' W 076°36'1 1.2
2014-Sep-18 21:33N 39°16' W 076°35'3 3.1
2014-Sep-18 20:33N 39°13' W 076°35'0 0.4
2014-Sep-18 19:33N 39°12' W 076°35'1 1.1
2014-Sep-18 18:33N 39°13' W 076°34'3 2.9
2014-Sep-18 17:33N 39°13' W 076°31'7 7.0
2014-Sep-18 16:33N 39°08' W 076°24'8 7.1
2014-Sep-18 15:23N 38°60' W 076°23'105 6.6
2014-Sep-17 23:28N 37°16' W 076°11'14 7.1
2014-Sep-17 21:29N 37°02' W 076°15'12 5.3
2014-Sep-17 19:12N 36°50' W 076°18'4 0.1
2014-Sep-15 19:19N 36°53' W 076°20'5 6.5
2014-Sep-15 18:30N 36°58' W 076°20'13 6.4
2014-Sep-15 16:32N 37°09' W 076°12'108 6.7
2014-Sep-15 00:18N 38°57' W 076°24'5 5.8
2014-Sep-14 23:30N 39°02' W 076°23'6 6.0
2014-Sep-14 22:27N 39°08' W 076°24'5 5.9
2014-Sep-14 21:33N 39°12' W 076°29'4 4.4
2014-Sep-14 20:33N 39°12' W 076°35'0 0.0
2014-Sep-14 19:33N 39°12' W 076°35'0 0.0
2014-Sep-14 18:33N 39°12' W 076°35'0 0.1
2014-Sep-14 17:33N 39°12' W 076°35'0 0.0
2014-Sep-14 16:32N 39°12' W 076°35'0 0.0
2014-Sep-14 15:33N 39°12' W 076°35'0 0.0
2014-Sep-14 14:33N 39°12' W 076°35'0 0.0
2014-Sep-14 13:33N 39°12' W 076°35'0 0.0
2014-Sep-14 12:33N 39°12' W 076°35'0 0.0
2014-Sep-14 11:33N 39°12' W 076°35'0 0.0
2014-Sep-14 10:32N 39°12' W 076°35'0 0.0
2014-Sep-14 09:33N 39°12' W 076°35'0 0.0
2014-Sep-14 08:33N 39°12' W 076°35'0 0.0
2014-Sep-14 07:33N 39°12' W 076°35'0 0.0
2014-Sep-14 06:33N 39°12' W 076°35'0 0.0
2014-Sep-14 05:33N 39°12' W 076°35'0 0.0
2014-Sep-14 04:33N 39°12' W 076°35'0 0.0
2014-Sep-14 03:33N 39°12' W 076°35'0 0.0
2014-Sep-14 02:33N 39°12' W 076°35'4 3.8
2014-Sep-14 01:33N 39°12' W 076°30'126 6.5
2014-Sep-13 06:04N 37°07' W 076°13'5 6.7
2014-Sep-13 05:21N 37°02' W 076°15'5 5.8
2014-Sep-13 04:29N 36°59' W 076°20'6 6.4
2014-Sep-13 03:32N 36°53' W 076°20'6 5.6
2014-Sep-13 02:25N 36°47' W 076°18'0 0.0
2014-Sep-11 19:21N 36°47' W 076°18'2 3.1
2014-Sep-11 18:33N 36°49' W 076°17'4 3.4
2014-Sep-11 17:25N 36°52' W 076°20'5 5.6
2014-Sep-11 16:28N 36°58' W 076°20'6 6.0
2014-Sep-11 15:32N 37°02' W 076°15'5 4.9
2014-Sep-11 14:27N 37°06' W 076°13'125 5.9
2014-Sep-10 17:15N 39°11' W 076°27'4 6.3
2014-Sep-10 16:33N 39°13' W 076°32'3 2.7
2014-Sep-10 15:33N 39°12' W 076°35'0 0.0
2014-Sep-10 14:33N 39°12' W 076°35'0 0.0
2014-Sep-10 13:33N 39°12' W 076°35'0 0.0
2014-Sep-10 12:33N 39°12' W 076°35'0 0.0
2014-Sep-10 11:33N 39°12' W 076°35'0 0.0
2014-Sep-10 10:33N 39°12' W 076°35'0 0.0
2014-Sep-10 09:33N 39°12' W 076°35'0 0.0
2014-Sep-10 08:33N 39°12' W 076°35'0 0.0
2014-Sep-10 07:33N 39°12' W 076°35'2 1.9
2014-Sep-10 06:33N 39°13' W 076°33'6 6.0
2014-Sep-10 05:33N 39°11' W 076°26'  
Track history (hours):
 
Tides and Currents Weather Stations Pressure Air Temp Water Temp Dewpoint Dewpoint Depression Visibility Wind Speed Wind Dir Waves Ship Positions

Island Lookout

More information available from US FCC via Universal Licensing System and Coast Guard Vessel Documentation Center.

Last reported at 2014-Sep-18 23:33 UTC. Time now 2014-Sep-18 23:45 UTC.
Position N 39°17' W 076°36'.

Length 22 m; draft 2.9 m.

Type: Towing. MMSI: 367472930.

Date/timePositionNaut miles runAvg speedWind from/ knotsBaromVisibWave heightAir tempDewpointWater temp
2014-Sep-18 23:33N 39°17' W 076°36'0 0.0
2014-Sep-18 22:33N 39°17' W 076°36'1 1.2
2014-Sep-18 21:33N 39°16' W 076°35'3 3.1
2014-Sep-18 20:33N 39°13' W 076°35'0 0.4
2014-Sep-18 19:33N 39°12' W 076°35'1 1.1
2014-Sep-18 18:33N 39°13' W 076°34'3 2.9
2014-Sep-18 17:33N 39°13' W 076°31'7 7.0
2014-Sep-18 16:33N 39°08' W 076°24'8 7.1
2014-Sep-18 15:23N 38°60' W 076°23'105 6.6
2014-Sep-17 23:28N 37°16' W 076°11'14 7.1
2014-Sep-17 21:29N 37°02' W 076°15'12 5.3
2014-Sep-17 19:12N 36°50' W 076°18'4 0.1
2014-Sep-15 19:19N 36°53' W 076°20'5 6.5
2014-Sep-15 18:30N 36°58' W 076°20'13 6.4
2014-Sep-15 16:32N 37°09' W 076°12'108 6.7
2014-Sep-15 00:18N 38°57' W 076°24'5 5.8
2014-Sep-14 23:30N 39°02' W 076°23'6 6.0
2014-Sep-14 22:27N 39°08' W 076°24'5 5.9
2014-Sep-14 21:33N 39°12' W 076°29'4 4.4
2014-Sep-14 20:33N 39°12' W 076°35'0 0.0
2014-Sep-14 19:33N 39°12' W 076°35'0 0.0
2014-Sep-14 18:33N 39°12' W 076°35'0 0.1
2014-Sep-14 17:33N 39°12' W 076°35'0 0.0
2014-Sep-14 16:32N 39°12' W 076°35'0 0.0
2014-Sep-14 15:33N 39°12' W 076°35'0 0.0
2014-Sep-14 14:33N 39°12' W 076°35'0 0.0
2014-Sep-14 13:33N 39°12' W 076°35'0 0.0
2014-Sep-14 12:33N 39°12' W 076°35'0 0.0
2014-Sep-14 11:33N 39°12' W 076°35'0 0.0
2014-Sep-14 10:32N 39°12' W 076°35'0 0.0
2014-Sep-14 09:33N 39°12' W 076°35'0 0.0
2014-Sep-14 08:33N 39°12' W 076°35'0 0.0
2014-Sep-14 07:33N 39°12' W 076°35'0 0.0
2014-Sep-14 06:33N 39°12' W 076°35'0 0.0
2014-Sep-14 05:33N 39°12' W 076°35'0 0.0
2014-Sep-14 04:33N 39°12' W 076°35'0 0.0
2014-Sep-14 03:33N 39°12' W 076°35'0 0.0
2014-Sep-14 02:33N 39°12' W 076°35'4 3.8
2014-Sep-14 01:33N 39°12' W 076°30'126 6.5
2014-Sep-13 06:04N 37°07' W 076°13'5 6.7
2014-Sep-13 05:21N 37°02' W 076°15'5 5.8
2014-Sep-13 04:29N 36°59' W 076°20'6 6.4
2014-Sep-13 03:32N 36°53' W 076°20'6 5.6
2014-Sep-13 02:25N 36°47' W 076°18'0 0.0
2014-Sep-11 19:21N 36°47' W 076°18'2 3.1
2014-Sep-11 18:33N 36°49' W 076°17'4 3.4
2014-Sep-11 17:25N 36°52' W 076°20'5 5.6
2014-Sep-11 16:28N 36°58' W 076°20'6 6.0
2014-Sep-11 15:32N 37°02' W 076°15'5 4.9
2014-Sep-11 14:27N 37°06' W 076°13'125 5.9
2014-Sep-10 17:15N 39°11' W 076°27'4 6.3
2014-Sep-10 16:33N 39°13' W 076°32'3 2.7
2014-Sep-10 15:33N 39°12' W 076°35'0 0.0
2014-Sep-10 14:33N 39°12' W 076°35'0 0.0
2014-Sep-10 13:33N 39°12' W 076°35'0 0.0
2014-Sep-10 12:33N 39°12' W 076°35'0 0.0
2014-Sep-10 11:33N 39°12' W 076°35'0 0.0
2014-Sep-10 10:33N 39°12' W 076°35'0 0.0
2014-Sep-10 09:33N 39°12' W 076°35'0 0.0
2014-Sep-10 08:33N 39°12' W 076°35'0 0.0
2014-Sep-10 07:33N 39°12' W 076°35'2 1.9
2014-Sep-10 06:33N 39°13' W 076°33'6 6.0
2014-Sep-10 05:33N 39°11' W 076°26'  

Dump ship's entire track history